Time;durP1;ratioP1;P1;durP2;ratioP2;P2;SDS_P1;SDS_P2;PMS_P1;PMS_P2;Temp;Humidity;BMP_temperature;BMP_pressure;BME280_temperature;BME280_humidity;BME280_pressure;Samples;Min_cycle;Max_cycle;Signal;HPM_P1;HPM_P2
2022/07/27 00:00:54;;;;;;;27.23;15.98;;;;;;;20.97;69.46;99349.16;4814976;29;20073;-81
2022/07/27 00:03:22;;;;;;;21.88;16.52;;;;;;;20.79;69.79;99308.78;4814503;29;20046;-81
2022/07/27 00:05:48;;;;;;;25.52;16.05;;;;;;;20.77;69.49;99313.31;4827724;29;20770;-82
2022/07/27 00:08:15;;;;;;;22.98;14.95;;;;;;;20.60;69.93;99286.06;4830358;29;20129;-81
2022/07/27 00:10:41;;;;;;;20.95;15.05;;;;;;;20.68;69.80;99306.75;4823252;29;20049;-81
2022/07/27 00:13:07;;;;;;;26.85;15.48;;;;;;;20.70;69.63;99319.88;4803662;29;20541;-83
2022/07/27 00:15:34;;;;;;;24.67;15.77;;;;;;;20.49;69.82;99298.19;4820837;29;20050;-83
2022/07/27 00:18:00;;;;;;;23.30;14.82;;;;;;;20.59;69.90;99309.94;4807244;29;20106;-82
2022/07/27 00:20:27;;;;;;;28.45;15.68;;;;;;;20.73;69.65;99333.75;4822478;29;20043;-81
2022/07/27 00:22:54;;;;;;;19.95;14.07;;;;;;;20.58;69.61;99319.66;4807634;29;20107;-80
2022/07/27 00:25:21;;;;;;;21.85;15.57;;;;;;;20.41;69.86;99296.84;4816290;29;20547;-80
2022/07/27 00:27:48;;;;;;;18.17;15.25;;;;;;;20.40;69.74;99297.81;4813925;29;20524;-81
2022/07/27 00:30:15;;;;;;;29.00;16.35;;;;;;;20.50;70.05;99310.47;4803668;29;20526;-83
2022/07/27 00:32:41;;;;;;;20.67;15.85;;;;;;;20.68;69.98;99349.03;4819082;29;20407;-79
2022/07/27 00:35:08;;;;;;;20.98;16.38;;;;;;;20.67;69.73;99349.97;4803715;29;20579;-80
2022/07/27 00:37:34;;;;;;;25.73;17.17;;;;;;;20.61;69.80;99342.41;4816486;29;20072;-83
2022/07/27 00:40:01;;;;;;;31.75;17.35;;;;;;;20.49;70.14;99321.97;4818075;29;20046;-80
2022/07/27 00:42:27;;;;;;;24.92;15.55;;;;;;;20.50;70.41;99334.25;4817940;29;20049;-80
2022/07/27 00:44:54;;;;;;;19.48;14.48;;;;;;;20.46;70.49;99349.44;4818398;29;20043;-81
2022/07/27 00:47:21;;;;;;;17.55;14.82;;;;;;;20.14;70.29;99301.91;4818154;29;20048;-82
2022/07/27 00:49:47;;;;;;;21.20;14.68;;;;;;;20.27;70.56;99341.69;4814481;29;20054;-82
2022/07/27 00:52:14;;;;;;;20.55;16.05;;;;;;;20.24;70.74;99326.88;4828804;29;20054;-79
2022/07/27 00:54:42;;;;;;;22.10;15.18;;;;;;;20.26;70.88;99351.41;4801935;29;20120;-78
2022/07/27 00:57:10;;;;;;;23.48;16.40;;;;;;;20.25;70.90;99351.50;4815784;29;20054;-80
2022/07/27 00:59:36;;;;;;;23.77;17.23;;;;;;;20.23;70.96;99346.31;4833350;29;20035;-80
2022/07/27 01:02:04;;;;;;;27.40;16.70;;;;;;;20.28;71.34;99356.59;4831859;29;20054;-80
2022/07/27 01:04:30;;;;;;;25.50;16.50;;;;;;;20.04;71.52;99324.50;4822182;29;20133;-81
2022/07/27 01:06:56;;;;;;;24.92;16.98;;;;;;;20.26;71.51;99366.41;4816445;29;20054;-80
2022/07/27 01:12:13;;;;;;;23.63;16.83;;;;;;;20.21;71.83;99360.50;4819946;29;20058;-79
2022/07/27 01:14:39;;;;;;;27.92;18.80;;;;;;;19.97;71.70;99332.75;4816312;29;20045;-81
2022/07/27 01:17:05;;;;;;;29.83;18.50;;;;;;;20.17;71.65;99354.56;4818874;29;20061;-81
2022/07/27 01:19:34;;;;;;;24.95;17.42;;;;;;;20.08;71.71;99348.00;4815907;29;20135;-81
2022/07/27 01:22:03;;;;;;;24.35;17.80;;;;;;;20.01;71.72;99333.44;4805434;29;20045;-81
2022/07/27 01:24:30;;;;;;;24.67;16.92;;;;;;;20.26;71.81;99372.56;4815803;29;20046;-78
2022/07/27 01:26:56;;;;;;;22.63;17.05;;;;;;;20.26;71.92;99374.31;4825349;29;20046;-80
2022/07/27 01:29:22;;;;;;;21.75;16.90;;;;;;;19.96;71.91;99323.13;4822934;29;20046;-81
2022/07/27 01:31:48;;;;;;;29.33;16.63;;;;;;;19.97;72.06;99334.56;4836055;29;20200;-81
2022/07/27 01:34:14;;;;;;;19.67;16.05;;;;;;;20.26;72.01;99371.69;4833248;29;20042;-82
2022/07/27 01:36:40;;;;;;;27.20;18.58;;;;;;;20.25;71.87;99364.69;4816692;29;20125;-82
2022/07/27 01:39:06;;;;;;;28.52;18.13;;;;;;;20.32;72.27;99376.63;4815164;29;20069;-80
2022/07/27 01:41:32;;;;;;;38.60;18.05;;;;;;;20.19;72.01;99352.69;4815929;29;20175;-80
2022/07/27 01:43:59;;;;;;;29.88;16.90;;;;;;;20.24;72.42;99365.63;4821339;29;20065;-80
2022/07/27 01:46:25;;;;;;;24.98;16.95;;;;;;;20.08;72.09;99342.72;4816433;29;20107;-80
2022/07/27 01:48:51;;;;;;;25.85;17.75;;;;;;;20.34;72.24;99374.75;4816012;29;20050;-81
2022/07/27 01:51:17;;;;;;;26.05;18.13;;;;;;;20.27;72.25;99374.25;4812992;29;20046;-81
2022/07/27 01:53:43;;;;;;;24.20;18.20;;;;;;;20.35;72.16;99376.47;4815307;29;20046;-81
2022/07/27 01:56:11;;;;;;;27.75;19.55;;;;;;;20.24;72.24;99374.44;4811778;29;20114;-81
2022/07/27 01:58:38;;;;;;;24.95;19.13;;;;;;;20.25;72.05;99372.63;4813439;29;20152;-82
2022/07/27 02:01:05;;;;;;;24.50;18.95;;;;;;;20.37;72.35;99379.88;4800756;29;20443;-81
2022/07/27 02:03:33;;;;;;;29.63;18.75;;;;;;;20.40;72.33;99379.72;4829396;29;20046;-80
2022/07/27 02:05:59;;;;;;;32.30;19.13;;;;;;;20.20;72.24;99332.41;4826713;29;20495;-82
2022/07/27 02:08:25;;;;;;;25.73;18.30;;;;;;;20.47;72.16;99375.75;4816058;29;20055;-81
2022/07/27 02:13:37;;;;;;;33.88;20.25;;;;;;;20.49;72.35;99378.31;4800269;29;20058;-80
2022/07/27 02:16:04;;;;;;;31.60;20.70;;;;;;;20.48;72.58;99368.69;4814656;29;20126;-81
2022/07/27 02:18:30;;;;;;;28.52;18.73;;;;;;;20.24;72.16;99329.53;4801815;29;20084;-80
2022/07/27 02:20:56;;;;;;;27.90;18.65;;;;;;;20.40;72.31;99352.41;4814998;29;20115;-81
2022/07/27 02:23:22;;;;;;;29.70;19.27;;;;;;;20.52;72.34;99356.16;4817814;29;20058;-80
2022/07/27 02:25:48;;;;;;;29.70;18.52;;;;;;;20.67;72.56;99373.75;4813315;29;21299;-81
2022/07/27 02:28:14;;;;;;;23.83;17.92;;;;;;;20.62;72.27;99359.97;4816627;29;20056;-81
2022/07/27 02:30:40;;;;;;;27.92;18.63;;;;;;;20.57;72.42;99351.47;4823259;29;20046;-80
2022/07/27 02:33:07;;;;;;;27.50;21.10;;;;;;;20.67;72.07;99365.00;4822247;29;20069;-82
2022/07/27 02:35:33;;;;;;;27.17;20.33;;;;;;;20.76;71.93;99375.91;4834615;29;20050;-79
2022/07/27 02:38:00;;;;;;;26.75;19.88;;;;;;;20.68;72.41;99351.69;4838822;29;20072;-81
2022/07/27 02:40:26;;;;;;;25.83;19.77;;;;;;;20.67;72.08;99344.69;4822779;29;20046;-81
2022/07/27 02:42:52;;;;;;;30.38;19.45;;;;;;;20.89;72.04;99357.53;4813725;29;20052;-81
2022/07/27 02:45:19;;;;;;;23.58;19.58;;;;;;;21.13;71.91;99382.63;4814072;29;20068;-80
2022/07/27 02:47:45;;;;;;;25.77;20.08;;;;;;;20.91;71.95;99341.56;4815429;29;20055;-80
2022/07/27 02:50:11;;;;;;;29.17;19.73;;;;;;;21.24;71.69;99382.84;4815279;29;20548;-80
2022/07/27 02:52:38;;;;;;;24.90;19.73;;;;;;;21.30;71.89;99384.25;4813800;29;21001;-81
2022/07/27 02:55:05;;;;;;;30.67;19.80;;;;;;;21.25;71.78;99359.88;4812365;29;20073;-82
2022/07/27 02:57:33;;;;;;;26.20;20.45;;;;;;;21.31;71.40;99354.22;4818005;29;20050;-81
2022/07/27 02:59:59;;;;;;;30.40;19.98;;;;;;;21.64;71.78;99393.69;4817991;29;20050;-79
2022/07/27 03:02:25;;;;;;;28.38;19.67;;;;;;;21.64;70.69;99392.81;4813827;29;20118;-80
2022/07/27 03:04:51;;;;;;;30.67;22.85;;;;;;;21.47;71.12;99375.31;4814593;29;20121;-80
2022/07/27 03:07:18;;;;;;;26.52;19.83;;;;;;;21.57;71.49;99376.44;4815869;29;20408;-81
2022/07/27 03:09:44;;;;;;;30.95;20.65;;;;;;;21.88;71.51;99394.88;4816303;29;20121;-81
2022/07/27 03:12:10;;;;;;;28.55;21.50;;;;;;;21.69;70.97;99337.78;4819096;29;20384;-80
2022/07/27 03:14:36;;;;;;;34.05;21.90;;;;;;;22.10;71.34;99391.75;4807759;29;20073;-82
2022/07/27 03:17:02;;;;;;;29.83;22.83;;;;;;;22.20;70.94;99384.91;4829842;29;20054;-77
2022/07/27 03:19:29;;;;;;;29.75;22.45;;;;;;;22.23;70.63;99375.94;4822722;29;20069;-80
2022/07/27 03:21:55;;;;;;;31.50;22.88;;;;;;;22.48;70.74;99393.75;4825694;29;20100;-81
2022/07/27 03:24:21;;;;;;;30.23;23.00;;;;;;;22.50;70.37;99380.44;4810370;29;20099;-81
2022/07/27 03:26:48;;;;;;;26.75;22.20;;;;;;;22.71;70.17;99396.72;4811282;29;20084;-78
2022/07/27 03:29:17;;;;;;;34.83;24.55;;;;;;;22.78;69.97;99384.75;4826377;29;20046;-79
2022/07/27 03:31:44;;;;;;;30.80;26.42;;;;;;;22.67;69.71;99348.34;4822518;29;20105;-81
2022/07/27 03:34:10;;;;;;;33.40;25.17;;;;;;;22.94;69.36;99371.31;4795240;29;20423;-82
2022/07/27 03:36:36;;;;;;;35.35;25.20;;;;;;;22.96;68.83;99358.78;4831351;29;20050;-84
2022/07/27 03:39:03;;;;;;;31.38;25.40;;;;;;;22.93;68.57;99340.44;4828218;29;20046;-80
2022/07/27 03:41:34;;;;;;;35.03;26.13;;;;;;;23.34;68.27;99389.00;4825819;29;20053;-83
2022/07/27 03:44:00;;;;;;;29.40;25.58;;;;;;;23.38;68.12;99384.34;4811117;29;20157;-81
2022/07/27 03:46:26;;;;;;;32.78;25.05;;;;;;;23.29;67.74;99356.63;4812300;29;20484;-85
2022/07/27 03:48:52;;;;;;;29.75;25.15;;;;;;;23.60;66.77;99418.22;4813774;29;20042;-85
2022/07/27 03:51:18;;;;;;;29.80;23.50;;;;;;;23.57;67.35;99402.50;4828912;29;20046;-84
2022/07/27 03:53:44;;;;;;;31.23;24.13;;;;;;;23.77;66.45;99425.00;4808634;29;20089;-83
2022/07/27 03:56:10;;;;;;;27.90;24.15;;;;;;;23.64;66.74;99398.47;4820601;29;20410;-82
2022/07/27 03:58:37;;;;;;;32.38;24.08;;;;;;;23.46;66.32;99364.28;4828040;29;20046;-83
2022/07/27 04:01:03;;;;;;;32.70;24.10;;;;;;;23.62;66.28;99390.59;4810760;29;20061;-85
2022/07/27 04:03:29;;;;;;;34.47;25.23;;;;;;;23.85;66.67;99421.81;4832906;29;20042;-84
2022/07/27 04:05:58;;;;;;;33.53;24.15;;;;;;;23.70;66.15;99384.75;4839353;29;20050;-84
2022/07/27 04:08:53;;;;;;;27.27;23.15;;;;;;;24.07;66.26;99410.53;4831580;29;20857;-88
2022/07/27 04:11:19;;;;;;;24.75;21.00;;;;;;;23.95;65.87;99369.72;4816073;29;20035;-86
2022/07/27 04:13:52;;;;;;;26.17;21.98;;;;;;;23.86;65.58;99339.34;4849282;29;20110;-83
2022/07/27 04:16:38;;;;;;;24.98;20.83;;;;;;;24.15;64.92;99339.09;4846894;29;20115;-87
2022/07/27 04:19:13;;;;;;;26.02;20.23;;;;;;;24.47;65.18;99340.34;4827074;29;20073;-86
2022/07/27 04:22:07;;;;;;;27.45;20.30;;;;;;;24.78;64.06;99340.75;4837529;29;20065;-91
2022/07/27 04:24:36;;;;;;;26.35;20.35;;;;;;;25.16;63.35;99368.88;4830922;29;20043;-84
2022/07/27 04:27:03;;;;;;;22.25;19.70;;;;;;;25.36;62.73;99366.50;4814695;29;20054;-82
2022/07/27 04:29:32;;;;;;;24.48;19.80;;;;;;;25.78;61.84;99404.06;4826726;29;20155;-80
2022/07/27 04:31:58;;;;;;;24.90;19.67;;;;;;;25.78;61.24;99397.91;4824829;29;20134;-78
2022/07/27 04:34:25;;;;;;;24.50;19.10;;;;;;;25.94;60.60;99405.50;4828046;29;20074;-81
2022/07/27 04:36:51;;;;;;;24.08;20.05;;;;;;;26.12;60.74;99409.44;4826883;29;20487;-79
2022/07/27 04:39:17;;;;;;;23.75;20.20;;;;;;;26.23;60.05;99410.38;4806008;29;20079;-79
2022/07/27 04:41:43;;;;;;;27.80;20.13;;;;;;;26.35;59.92;99416.53;4823820;29;20081;-80
2022/07/27 04:44:09;;;;;;;22.17;18.58;;;;;;;26.51;59.46;99408.13;4824010;29;20499;-78
2022/07/27 04:46:35;;;;;;;24.23;19.73;;;;;;;26.57;58.71;99399.63;4808750;29;20091;-80
2022/07/27 04:49:01;;;;;;;22.52;19.65;;;;;;;26.67;58.64;99411.22;4830825;29;20043;-78
2022/07/27 04:51:28;;;;;;;25.42;21.10;;;;;;;26.75;58.56;99407.91;4825657;29;20054;-79
2022/07/27 04:53:54;;;;;;;24.08;20.25;;;;;;;26.74;58.17;99404.41;4828606;29;20042;-80
2022/07/27 04:56:20;;;;;;;26.88;19.55;;;;;;;26.85;57.83;99416.03;4824611;29;20511;-78
2022/07/27 04:58:46;;;;;;;20.42;18.25;;;;;;;27.05;57.72;99403.69;4794036;29;20038;-79
2022/07/27 05:01:17;;;;;;;20.15;17.95;;;;;;;27.26;57.29;99395.66;4817786;29;20702;-79
2022/07/27 05:03:44;;;;;;;24.48;19.17;;;;;;;27.56;56.92;99418.09;4803632;29;20049;-81
2022/07/27 05:06:10;;;;;;;22.67;18.13;;;;;;;27.70;56.06;99419.56;4814179;29;20132;-83
2022/07/27 05:08:36;;;;;;;22.48;18.75;;;;;;;27.62;55.71;99376.63;4814260;29;20067;-81
2022/07/27 05:11:03;;;;;;;19.80;17.60;;;;;;;27.98;55.02;99390.44;4817778;29;20419;-83
2022/07/27 05:13:39;;;;;;;25.55;17.25;;;;;;;28.40;54.58;99408.13;4818751;29;20050;-84
2022/07/27 05:16:09;;;;;;;20.42;17.70;;;;;;;28.67;53.97;99401.28;4819556;29;20054;-83
2022/07/27 05:18:39;;;;;;;21.27;18.80;;;;;;;28.80;53.22;99401.84;4829867;29;20065;-80
2022/07/27 05:21:08;;;;;;;19.02;17.02;;;;;;;28.90;53.28;99398.34;4839592;29;20142;-83
2022/07/27 05:23:35;;;;;;;19.58;17.02;;;;;;;28.97;52.57;99373.53;4816529;29;20039;-83
2022/07/27 05:26:02;;;;;;;23.80;17.92;;;;;;;29.32;51.92;99384.59;4815360;29;20066;-82
2022/07/27 05:28:29;;;;;;;22.85;19.33;;;;;;;29.43;51.16;99357.69;4818975;29;20376;-83
2022/07/27 05:30:55;;;;;;;25.13;17.75;;;;;;;30.01;50.81;99387.09;4815459;29;20044;-83
2022/07/27 05:33:21;;;;;;;22.67;17.60;;;;;;;30.30;50.25;99389.59;4817248;29;20048;-84
2022/07/27 05:35:47;;;;;;;19.90;17.80;;;;;;;30.53;49.76;99389.16;4819552;29;20434;-83
2022/07/27 05:38:13;;;;;;;22.95;17.90;;;;;;;30.54;49.02;99364.00;4815455;29;20038;-84
2022/07/27 05:40:42;;;;;;;21.77;18.05;;;;;;;30.65;48.77;99366.47;4818860;29;20123;-85
2022/07/27 05:43:08;;;;;;;20.35;18.08;;;;;;;30.90;47.90;99369.34;4830797;29;20049;-83
2022/07/27 05:45:34;;;;;;;19.95;16.63;;;;;;;31.69;47.88;99407.00;4824393;29;20062;-82
2022/07/27 05:48:01;;;;;;;17.20;15.50;;;;;;;32.95;46.73;99395.59;4815316;29;20046;-84
2022/07/27 05:50:27;;;;;;;20.10;16.02;;;;;;;34.56;44.59;99392.91;4814494;29;20171;-82
2022/07/27 05:52:53;;;;;;;19.50;16.27;;;;;;;36.08;41.95;99393.81;4818726;29;20047;-83
2022/07/27 05:55:20;;;;;;;19.75;16.70;;;;;;;37.49;39.38;99387.00;4826564;29;20043;-83
2022/07/27 05:57:46;;;;;;;17.30;15.55;;;;;;;38.56;37.04;99373.84;4828554;29;20080;-80
2022/07/27 06:00:16;;;;;;;20.52;17.05;;;;;;;39.60;34.24;99386.97;4822322;29;20154;-82
2022/07/27 06:02:42;;;;;;;17.43;15.67;;;;;;;40.38;32.80;99365.25;4815810;29;20082;-84
2022/07/27 06:05:09;;;;;;;16.20;14.70;;;;;;;41.53;31.50;99387.78;4814445;29;20308;-81
2022/07/27 06:10:20;;;;;;;16.67;14.63;;;;;;;43.26;27.98;99383.84;4816921;29;20507;-86
2022/07/27 06:12:46;;;;;;;17.00;15.30;;;;;;;43.80;26.67;99386.38;4800071;29;20570;-84
2022/07/27 06:15:14;;;;;;;15.93;14.30;;;;;;;44.53;25.87;99394.06;4813689;29;20050;-83
2022/07/27 06:17:40;;;;;;;18.15;14.90;;;;;;;44.84;25.23;99400.06;4828971;29;20042;-83
2022/07/27 06:20:08;;;;;;;15.82;14.15;;;;;;;45.39;24.59;99372.88;4799397;29;20071;-84
2022/07/27 06:22:48;;;;;;;16.02;14.60;;;;;;;46.10;23.13;99374.88;4825685;29;20375;-85
2022/07/27 06:25:18;;;;;;;15.70;14.10;;;;;;;46.84;22.38;99377.19;4812703;29;20054;-85
2022/07/27 06:27:45;;;;;;;18.45;15.07;;;;;;;47.62;21.70;99390.31;4799555;29;20047;-83
2022/07/27 06:30:14;;;;;;;15.52;14.02;;;;;;;47.74;20.68;99381.00;4813444;29;20038;-85
2022/07/27 06:32:41;;;;;;;18.53;16.73;;;;;;;47.80;20.55;99371.63;4819200;29;20065;-82
2022/07/27 06:35:08;;;;;;;17.40;15.82;;;;;;;48.13;19.84;99391.56;4823874;29;20061;-86
2022/07/27 06:37:42;;;;;;;18.33;16.63;;;;;;;48.51;19.72;99383.09;4815663;29;20411;-85
2022/07/27 06:40:11;;;;;;;16.70;15.05;;;;;;;48.87;19.59;99399.63;4811148;29;20082;-84
2022/07/27 06:42:39;;;;;;;16.40;14.93;;;;;;;49.17;18.66;99378.63;4804213;29;20418;-84
2022/07/27 06:45:06;;;;;;;19.20;14.93;;;;;;;49.78;18.64;99364.81;4802399;29;20614;-84
2022/07/27 06:47:32;;;;;;;18.25;15.75;;;;;;;50.24;17.91;99372.84;4815443;29;20038;-85
2022/07/27 06:49:59;;;;;;;19.35;17.55;;;;;;;50.43;17.09;99388.75;4816038;29;20053;-84
2022/07/27 06:52:25;;;;;;;18.90;17.10;;;;;;;50.56;16.35;99398.34;4817854;29;20095;-84
2022/07/27 06:54:51;;;;;;;14.48;13.18;;;;;;;50.39;16.82;99376.63;4822603;29;20054;-84
2022/07/27 06:57:18;;;;;;;15.18;13.82;;;;;;;50.86;16.09;99416.66;4807218;29;20503;-83
2022/07/27 06:59:44;;;;;;;15.32;13.80;;;;;;;50.49;15.92;99406.94;4820422;29;20130;-84
2022/07/27 07:02:10;;;;;;;14.98;13.85;;;;;;;50.73;15.74;99403.44;4793633;29;20364;-84
2022/07/27 07:04:37;;;;;;;17.30;15.65;;;;;;;50.85;15.40;99395.63;4818633;29;20046;-84
2022/07/27 07:07:03;;;;;;;17.67;16.02;;;;;;;51.05;15.67;99410.34;4820163;29;20042;-83
2022/07/27 07:09:29;;;;;;;17.13;15.82;;;;;;;50.65;15.45;99393.84;4827380;29;20182;-81
2022/07/27 07:11:59;;;;;;;16.70;15.15;;;;;;;50.23;15.70;99412.66;4828544;29;20043;-82
2022/07/27 07:14:25;;;;;;;15.02;13.90;;;;;;;48.73;17.14;99402.13;4820421;29;20114;-85
2022/07/27 07:16:52;;;;;;;17.33;14.45;;;;;;;49.11;16.96;99397.09;4837008;29;20034;-83
2022/07/27 07:19:18;;;;;;;16.83;15.38;;;;;;;50.33;16.63;99397.94;4837026;29;20145;-84
2022/07/27 07:21:45;;;;;;;17.15;15.48;;;;;;;51.10;15.91;99392.84;4822145;29;20046;-82
2022/07/27 07:24:12;;;;;;;16.23;14.63;;;;;;;51.49;15.59;99389.91;4822821;29;20156;-82
2022/07/27 07:26:39;;;;;;;14.68;13.27;;;;;;;51.75;15.17;99392.38;4820643;29;20053;-81
2022/07/27 07:29:05;;;;;;;14.77;13.38;;;;;;;52.07;15.19;99404.69;4793400;29;20061;-84
2022/07/27 07:31:32;;;;;;;14.45;13.45;;;;;;;52.26;14.46;99384.44;4823073;29;20081;-82
2022/07/27 07:33:59;;;;;;;15.68;14.25;;;;;;;52.56;13.78;99408.06;4825268;29;20046;-84
2022/07/27 07:36:25;;;;;;;16.52;14.90;;;;;;;52.69;13.35;99417.56;4822514;29;20079;-82
2022/07/27 07:38:54;;;;;;;15.90;14.30;;;;;;;51.86;13.73;99415.22;4803064;29;20038;-82
2022/07/27 07:41:23;;;;;;;16.52;14.77;;;;;;;52.75;13.15;99423.84;4817993;29;20468;-82
2022/07/27 07:43:50;;;;;;;15.70;14.10;;;;;;;53.59;13.34;99391.41;4820241;29;20042;-85
2022/07/27 07:46:16;;;;;;;16.08;14.57;;;;;;;54.26;12.64;99394.66;4815384;29;20049;-82
2022/07/27 07:48:43;;;;;;;16.65;15.02;;;;;;;53.75;12.72;99421.66;4811037;29;20046;-81
2022/07/27 07:51:10;;;;;;;15.93;14.45;;;;;;;52.33;12.92;99393.19;4829078;29;20133;-80
2022/07/27 07:53:36;;;;;;;15.55;13.48;;;;;;;51.28;14.01;99414.28;4826837;29;20075;-82
2022/07/27 07:56:12;;;;;;;14.65;13.45;;;;;;;51.78;13.94;99402.84;4828632;29;20054;-83
2022/07/27 07:58:45;;;;;;;14.65;13.18;;;;;;;51.96;13.76;99386.56;4838116;29;20087;-84
2022/07/27 08:01:20;;;;;;;16.65;15.07;;;;;;;52.79;13.36;99404.66;4838218;29;20064;-82
2022/07/27 08:03:56;;;;;;;14.70;13.43;;;;;;;53.00;13.10;99424.53;4820661;29;20054;-82
2022/07/27 08:06:39;;;;;;;16.23;15.02;;;;;;;52.24;12.84;99400.53;4815838;29;20065;-79
2022/07/27 08:09:06;;;;;;;17.70;14.82;;;;;;;51.96;13.97;99408.75;4845951;29;20039;-82
2022/07/27 08:11:36;;;;;;;16.95;15.40;;;;;;;51.59;13.90;99399.22;4846039;29;20375;-81
2022/07/27 08:14:03;;;;;;;18.33;16.83;;;;;;;51.75;13.99;99400.69;4819210;29;20050;-82
2022/07/27 08:16:29;;;;;;;25.38;22.88;;;;;;;52.51;12.95;99388.75;4823772;29;20551;-83
2022/07/27 08:18:55;;;;;;;15.05;13.77;;;;;;;53.20;13.29;99406.66;4818597;29;20059;-82
2022/07/27 08:21:22;;;;;;;16.20;14.90;;;;;;;53.48;12.67;99395.56;4818188;29;20039;-81
2022/07/27 08:23:52;;;;;;;16.38;15.05;;;;;;;53.31;12.42;99407.31;4820500;29;20061;-81
2022/07/27 08:26:19;;;;;;;15.57;14.18;;;;;;;53.67;12.65;99411.31;4825712;29;20054;-81
2022/07/27 08:28:45;;;;;;;16.05;14.77;;;;;;;52.16;12.38;99395.69;4829983;29;20071;-81
2022/07/27 08:31:14;;;;;;;16.10;14.90;;;;;;;50.88;13.94;99399.72;4832190;29;20129;-79
2022/07/27 08:33:41;;;;;;;15.68;14.48;;;;;;;52.31;13.76;99395.47;4822115;29;20107;-82
2022/07/27 08:36:07;;;;;;;15.07;13.98;;;;;;;52.74;12.60;99405.56;4833085;29;20042;-80
2022/07/27 08:38:33;;;;;;;14.82;13.50;;;;;;;52.45;13.14;99384.41;4834260;29;20042;-81
2022/07/27 08:41:05;;;;;;;15.82;14.52;;;;;;;52.73;12.29;99398.38;4835663;29;20057;-79
2022/07/27 08:43:32;;;;;;;15.80;14.60;;;;;;;51.73;12.92;99399.31;4818587;29;20054;-80
2022/07/27 08:45:59;;;;;;;16.17;14.98;;;;;;;52.25;12.85;99394.72;4824180;29;20744;-80
2022/07/27 08:48:30;;;;;;;16.75;15.45;;;;;;;52.59;12.18;99403.91;4844224;29;20054;-80
2022/07/27 08:50:56;;;;;;;15.30;14.20;;;;;;;51.98;13.81;99406.47;4836646;29;20047;-79
2022/07/27 08:53:23;;;;;;;15.73;14.43;;;;;;;52.17;12.86;99395.38;4828536;29;20056;-81
2022/07/27 08:55:50;;;;;;;16.45;15.05;;;;;;;52.46;13.48;99399.09;4828074;29;20518;-79
2022/07/27 08:58:16;;;;;;;16.20;15.00;;;;;;;51.64;12.87;99391.69;4827676;29;20043;-83
2022/07/27 09:00:47;;;;;;;15.73;14.25;;;;;;;51.08;13.71;99396.75;4821389;29;20057;-80
2022/07/27 09:03:14;;;;;;;15.88;14.77;;;;;;;50.64;13.74;99406.03;4831658;29;20094;-80
2022/07/27 09:05:42;;;;;;;16.25;15.05;;;;;;;50.32;13.78;99396.31;4827137;29;20049;-82
2022/07/27 09:08:16;;;;;;;15.77;14.57;;;;;;;49.94;13.79;99371.09;4827666;29;20055;-82
2022/07/27 09:10:47;;;;;;;16.00;14.70;;;;;;;50.01;14.22;99379.91;4811894;29;20052;-81
2022/07/27 09:13:16;;;;;;;14.95;13.90;;;;;;;50.61;14.23;99392.75;4826744;29;20042;-81
2022/07/27 09:15:46;;;;;;;;;;;;;;;50.83;13.79;99400.59;4821359;29;20049;-82
2022/07/27 09:18:24;;;;;;;14.73;13.35;;;;;;;50.96;14.15;99381.66;4826330;29;19925;-82
2022/07/27 09:21:15;;;;;;;15.32;14.02;;;;;;;52.07;13.19;99390.81;4808781;29;20070;-82
2022/07/27 09:24:09;;;;;;;16.83;15.48;;;;;;;49.64;14.48;99395.03;4827103;29;20088;-81
2022/07/27 09:26:36;;;;;;;16.25;14.88;;;;;;;47.11;16.13;99398.28;4823101;29;20054;-81
2022/07/27 09:29:15;;;;;;;16.80;15.40;;;;;;;45.99;17.45;99381.31;4818770;29;20503;-80
2022/07/27 09:31:43;;;;;;;16.90;15.32;;;;;;;47.06;16.48;99396.31;4808452;29;20407;-82
2022/07/27 09:34:10;;;;;;;16.02;14.52;;;;;;;47.60;16.70;99380.66;4828519;29;20053;-80
2022/07/27 09:36:51;;;;;;;15.23;13.93;;;;;;;47.98;15.98;99384.09;4816913;29;20139;-80
2022/07/27 09:39:20;;;;;;;16.20;14.77;;;;;;;48.25;15.06;99367.31;4836563;29;20031;-82
2022/07/27 09:41:52;;;;;;;15.50;14.27;;;;;;;48.66;15.59;99385.81;4819280;29;21081;-82
2022/07/27 09:44:46;;;;;;;16.85;15.40;;;;;;;50.34;14.60;99391.28;4845171;29;20054;-84
2022/07/27 09:47:27;;;;;;;14.85;13.55;;;;;;;50.67;13.86;99397.13;4797321;29;20050;-79
2022/07/27 09:50:18;;;;;;;16.13;14.50;;;;;;;48.76;15.29;99384.22;4821271;29;20050;-81
2022/07/27 09:52:45;;;;;;;14.45;13.25;;;;;;;48.33;15.23;99370.66;4822159;29;20141;-79
2022/07/27 09:55:11;;;;;;;15.20;13.90;;;;;;;48.90;14.65;99357.69;4806517;29;20046;-81
2022/07/27 09:57:54;;;;;;;15.77;14.48;;;;;;;48.43;14.67;99378.97;4825341;29;20046;-80
2022/07/27 10:00:21;;;;;;;15.15;13.63;;;;;;;47.00;16.16;99362.44;4816057;29;20057;-81
2022/07/27 10:02:51;;;;;;;15.50;14.30;;;;;;;45.46;16.64;99345.28;4824603;29;20162;-82
2022/07/27 10:05:21;;;;;;;15.90;14.60;;;;;;;44.77;17.91;99375.56;4830973;29;20091;-80
2022/07/27 10:07:48;;;;;;;15.32;14.02;;;;;;;43.73;18.59;99389.25;4829331;29;20057;-81
2022/07/27 10:10:15;;;;;;;14.65;13.45;;;;;;;42.63;19.39;99362.38;4814594;29;20042;-80
2022/07/27 10:12:43;;;;;;;15.00;13.60;;;;;;;41.78;19.95;99372.38;4824767;29;20053;-80
2022/07/27 10:15:11;;;;;;;14.95;13.63;;;;;;;41.46;20.71;99377.97;4809178;29;20046;-80
2022/07/27 10:17:40;;;;;;;14.68;13.38;;;;;;;41.22;21.40;99369.63;4806437;29;20034;-82
2022/07/27 10:20:09;;;;;;;14.13;13.02;;;;;;;42.45;20.26;99355.09;4815962;29;20106;-81
2022/07/27 10:22:59;;;;;;;14.45;13.13;;;;;;;44.18;18.67;99360.25;4841116;29;20027;-80
2022/07/27 10:25:29;;;;;;;13.90;12.68;;;;;;;45.07;18.23;99370.81;4817179;29;20050;-80
2022/07/27 10:28:07;;;;;;;13.90;12.60;;;;;;;45.09;17.13;99361.22;4805867;29;20137;-80
2022/07/27 10:30:33;;;;;;;13.90;12.80;;;;;;;45.19;17.53;99360.53;4813472;29;20073;-81
2022/07/27 10:33:15;;;;;;;21.60;13.35;;;;;;;44.68;17.15;99375.16;4826240;29;20108;-80
2022/07/27 10:35:42;;;;;;;14.35;13.02;;;;;;;42.94;18.74;99375.97;4808794;29;20077;-81
2022/07/27 10:38:11;;;;;;;14.75;13.50;;;;;;;41.99;20.00;99360.16;4810050;29;20038;-81
2022/07/27 10:40:42;;;;;;;14.55;13.35;;;;;;;41.20;20.88;99339.84;4809856;29;20118;-80
2022/07/27 10:43:21;;;;;;;15.13;13.70;;;;;;;41.06;20.91;99366.41;4819236;29;20045;-83
2022/07/27 10:45:50;;;;;;;15.75;14.20;;;;;;;40.67;21.57;99360.25;4809587;29;20049;-77
2022/07/27 10:48:38;;;;;;;16.55;14.88;;;;;;;40.03;22.18;99369.19;4818488;29;20051;-80
2022/07/27 10:51:08;;;;;;;16.52;14.82;;;;;;;39.70;22.73;99374.78;4813478;29;20120;-80
2022/07/27 10:53:37;;;;;;;15.63;14.13;;;;;;;38.79;23.67;99369.03;4826183;29;20049;-81
2022/07/27 11:03:20;;;;;;;16.75;14.80;;;;;;;36.97;26.29;99341.16;5066675;24;20054;-80
2022/07/27 11:06:02;;;;;;;16.35;14.43;;;;;;;36.65;26.56;99350.66;4812774;29;20045;-83
2022/07/27 11:08:33;;;;;;;15.57;14.07;;;;;;;36.16;27.71;99361.19;4830946;29;20051;-81
2022/07/27 11:11:00;;;;;;;15.75;14.02;;;;;;;35.94;28.26;99373.84;4832622;29;20043;-83
2022/07/27 11:13:28;;;;;;;15.85;14.05;;;;;;;35.41;28.48;99363.97;4834074;29;20134;-81
2022/07/27 11:16:00;;;;;;;16.08;13.93;;;;;;;35.35;29.36;99370.09;4845111;29;20132;-82
2022/07/27 11:18:28;;;;;;;17.10;13.57;;;;;;;35.07;29.16;99341.84;4846836;29;20038;-81
2022/07/27 11:21:19;;;;;;;14.02;12.68;;;;;;;34.99;28.94;99334.66;4811621;29;20455;-81
2022/07/27 11:23:48;;;;;;;15.05;12.57;;;;;;;35.16;28.80;99371.50;4835093;29;20054;-83
2022/07/27 11:26:27;;;;;;;13.50;12.20;;;;;;;35.06;28.66;99366.38;4831080;29;20133;-85
2022/07/27 11:28:53;;;;;;;13.40;12.10;;;;;;;34.71;28.41;99353.31;4811956;29;20046;-82
2022/07/27 11:31:20;;;;;;;13.80;11.88;;;;;;;34.47;28.29;99343.53;4832376;29;20133;-80
2022/07/27 11:33:59;;;;;;;13.02;11.80;;;;;;;34.29;28.40;99354.59;4817303;29;20041;-81
2022/07/27 11:36:39;;;;;;;14.32;12.80;;;;;;;34.12;28.88;99346.59;4834017;29;20052;-83
2022/07/27 11:39:09;;;;;;;14.73;12.98;;;;;;;34.13;29.47;99342.03;4846872;29;20042;-84